Pagrindinis puslapis
METAR-TAF:

METAR-TAF

Oro uostai :

Odessa-Schlemeyer Field

Odessa, Teksasas, Jungtinės Amerikos Valstijos

platuma: 31-55-17N, ilguma: 102-23-30W, Aukštis: 914 m

Dabartinis oras

Ataskaita buvo paskelbta 33 minutes, ne 19:53 UTC
Vėjas 8 kt iš Pietų/Pietryčių
Temperatūra 10°C
Drėgmė 29%
Slėgis 1031 hPa
Matomumas: 16.1 km
Apsiniaukę ne aukštis 8000 ft

METAR: KODO 201953Z AUTO 16008KT 10SM OVC080 10/M07 A3045 RMK AO2 SLP302 T01001067

Laikas: 14:26 (20:26 UTC)


TAF: trūkstamas

Orai ataskaitas ir orų prognozės (METAR, TAF).

turimą stotys yra geltonos ir raudonos taškus žemėlapyje.

Perkelti pele per norėdami pamatyti stoties vardą.

Tada spustelėkite, norėdami matyti oro stebėjimo ir prognozės.

Norėdami pakeisti žemėlapį: spustelėkite ant žalios mygtukų su juodo kryžiaus žemyn,; žalią mygtuką su brūkšneliu, jei norite nutolinti; arba žalių rodyklių gretimoms žemėlapius.


METAR-TAF: